sensor_id;sensor_type;location;lat;lon;timestamp;pressure;altitude;pressure_sealevel;temperature;humidity
76424;BME280;65257;52.104;4.268;2023-09-19T00:00:21;100422.91;;;20.30;100.00
76424;BME280;65257;52.104;4.268;2023-09-19T00:02:57;100409.59;;;19.77;100.00
76424;BME280;65257;52.104;4.268;2023-09-19T00:05:30;100396.94;;;19.28;100.00
76424;BME280;65257;52.104;4.268;2023-09-19T00:08:00;100408.84;;;19.64;100.00
76424;BME280;65257;52.104;4.268;2023-09-19T00:10:26;100408.03;;;19.52;100.00
76424;BME280;65257;52.104;4.268;2023-09-19T00:12:53;100415.94;;;19.41;100.00
76424;BME280;65257;52.104;4.268;2023-09-19T00:15:21;100423.31;;;19.88;100.00
76424;BME280;65257;52.104;4.268;2023-09-19T00:17:46;100431.94;;;20.71;100.00
76424;BME280;65257;52.104;4.268;2023-09-19T00:20:14;100443.91;;;21.46;100.00
76424;BME280;65257;52.104;4.268;2023-09-19T00:22:42;100435.69;;;20.48;100.00
76424;BME280;65257;52.104;4.268;2023-09-19T00:25:09;100438.41;;;21.08;100.00
76424;BME280;65257;52.104;4.268;2023-09-19T00:27:41;100427.22;;;21.00;100.00
76424;BME280;65257;52.104;4.268;2023-09-19T00:30:17;100416.69;;;21.09;100.00
76424;BME280;65257;52.104;4.268;2023-09-19T00:32:47;100429.28;;;21.38;100.00
76424;BME280;65257;52.104;4.268;2023-09-19T00:35:19;100414.88;;;22.18;100.00
76424;BME280;65257;52.104;4.268;2023-09-19T00:37:44;100413.31;;;20.35;100.00
76424;BME280;65257;52.104;4.268;2023-09-19T00:40:11;100407.34;;;20.27;100.00
76424;BME280;65257;52.104;4.268;2023-09-19T00:43:03;100408.00;;;19.61;100.00
76424;BME280;65257;52.104;4.268;2023-09-19T00:45:29;100412.84;;;19.97;100.00
76424;BME280;65257;52.104;4.268;2023-09-19T00:47:54;100411.22;;;19.87;100.00
76424;BME280;65257;52.104;4.268;2023-09-19T00:50:22;100404.97;;;20.05;100.00
76424;BME280;65257;52.104;4.268;2023-09-19T00:52:52;100430.69;;;20.29;100.00
76424;BME280;65257;52.104;4.268;2023-09-19T00:55:18;100429.75;;;20.37;100.00
76424;BME280;65257;52.104;4.268;2023-09-19T00:57:45;100448.81;;;21.08;100.00
76424;BME280;65257;52.104;4.268;2023-09-19T01:00:11;100451.03;;;20.68;100.00
76424;BME280;65257;52.104;4.268;2023-09-19T01:02:44;100467.22;;;20.93;100.00
76424;BME280;65257;52.104;4.268;2023-09-19T01:05:14;100467.97;;;20.28;100.00
76424;BME280;65257;52.104;4.268;2023-09-19T01:07:41;100454.25;;;20.12;100.00
76424;BME280;65257;52.104;4.268;2023-09-19T01:10:09;100437.56;;;20.34;100.00
76424;BME280;65257;52.104;4.268;2023-09-19T01:21:37;100440.69;;;19.80;100.00
76424;BME280;65257;52.104;4.268;2023-09-19T01:27:58;100417.00;;;19.10;100.00
76424;BME280;65257;52.104;4.268;2023-09-19T01:30:36;100436.50;;;19.62;100.00
76424;BME280;65257;52.104;4.268;2023-09-19T01:33:11;100424.03;;;18.85;100.00
76424;BME280;65257;52.104;4.268;2023-09-19T01:35:40;100438.81;;;18.69;100.00
76424;BME280;65257;52.104;4.268;2023-09-19T01:38:11;100440.44;;;18.95;100.00
76424;BME280;65257;52.104;4.268;2023-09-19T01:40:59;100436.06;;;19.01;100.00
76424;BME280;65257;52.104;4.268;2023-09-19T01:43:37;100409.38;;;18.83;100.00
76424;BME280;65257;52.104;4.268;2023-09-19T01:46:21;100437.47;;;19.49;100.00
76424;BME280;65257;52.104;4.268;2023-09-19T01:48:57;100433.53;;;18.88;100.00
76424;BME280;65257;52.104;4.268;2023-09-19T01:51:44;100424.91;;;18.83;100.00
76424;BME280;65257;52.104;4.268;2023-09-19T01:54:12;100437.91;;;18.81;100.00
76424;BME280;65257;52.104;4.268;2023-09-19T01:59:48;100437.03;;;18.82;100.00
76424;BME280;65257;52.104;4.268;2023-09-19T02:02:17;100445.78;;;18.61;100.00
76424;BME280;65257;52.104;4.268;2023-09-19T02:04:48;100410.31;;;18.62;100.00
76424;BME280;65257;52.104;4.268;2023-09-19T02:07:17;100425.00;;;18.67;100.00
76424;BME280;65257;52.104;4.268;2023-09-19T02:09:45;100435.41;;;18.55;100.00
76424;BME280;65257;52.104;4.268;2023-09-19T02:12:13;100440.41;;;18.93;100.00
76424;BME280;65257;52.104;4.268;2023-09-19T02:14:40;100442.97;;;19.02;100.00
76424;BME280;65257;52.104;4.268;2023-09-19T02:17:06;100457.69;;;18.93;100.00
76424;BME280;65257;52.104;4.268;2023-09-19T02:19:32;100463.72;;;19.02;100.00
76424;BME280;65257;52.104;4.268;2023-09-19T02:21:59;100471.50;;;18.98;100.00
76424;BME280;65257;52.104;4.268;2023-09-19T02:24:24;100478.81;;;19.75;100.00
76424;BME280;65257;52.104;4.268;2023-09-19T02:26:52;100472.34;;;19.07;100.00
76424;BME280;65257;52.104;4.268;2023-09-19T02:29:21;100462.00;;;18.95;100.00
76424;BME280;65257;52.104;4.268;2023-09-19T02:31:57;100444.78;;;18.85;100.00
76424;BME280;65257;52.104;4.268;2023-09-19T02:34:22;100468.94;;;18.90;100.00
76424;BME280;65257;52.104;4.268;2023-09-19T02:36:48;100475.63;;;19.40;100.00
76424;BME280;65257;52.104;4.268;2023-09-19T02:39:14;100451.50;;;19.19;100.00
76424;BME280;65257;52.104;4.268;2023-09-19T02:41:39;100446.34;;;19.13;100.00
76424;BME280;65257;52.104;4.268;2023-09-19T02:44:07;100470.63;;;19.03;100.00
76424;BME280;65257;52.104;4.268;2023-09-19T02:46:36;100460.81;;;19.55;100.00
76424;BME280;65257;52.104;4.268;2023-09-19T02:49:07;100435.69;;;19.62;100.00
76424;BME280;65257;52.104;4.268;2023-09-19T02:51:33;100442.06;;;19.06;100.00
76424;BME280;65257;52.104;4.268;2023-09-19T02:53:59;100430.88;;;18.98;100.00
76424;BME280;65257;52.104;4.268;2023-09-19T02:56:29;100430.16;;;18.73;100.00
76424;BME280;65257;52.104;4.268;2023-09-19T02:59:04;100436.97;;;18.91;100.00
76424;BME280;65257;52.104;4.268;2023-09-19T03:01:30;100445.66;;;18.87;100.00
76424;BME280;65257;52.104;4.268;2023-09-19T03:03:56;100426.59;;;18.93;100.00
76424;BME280;65257;52.104;4.268;2023-09-19T03:06:22;100429.13;;;19.03;100.00
76424;BME280;65257;52.104;4.268;2023-09-19T03:08:55;100454.31;;;18.82;100.00
76424;BME280;65257;52.104;4.268;2023-09-19T03:11:20;100441.41;;;18.77;100.00
76424;BME280;65257;52.104;4.268;2023-09-19T03:13:52;100461.03;;;19.17;100.00
76424;BME280;65257;52.104;4.268;2023-09-19T03:16:18;100472.97;;;19.47;100.00
76424;BME280;65257;52.104;4.268;2023-09-19T03:18:49;100470.69;;;18.97;100.00
76424;BME280;65257;52.104;4.268;2023-09-19T03:21:18;100456.09;;;18.70;100.00
76424;BME280;65257;52.104;4.268;2023-09-19T03:23:44;100470.69;;;18.91;100.00
76424;BME280;65257;52.104;4.268;2023-09-19T03:26:14;100442.06;;;19.09;100.00
76424;BME280;65257;52.104;4.268;2023-09-19T03:28:41;100453.34;;;19.02;100.00
76424;BME280;65257;52.104;4.268;2023-09-19T03:31:07;100451.69;;;18.92;100.00
76424;BME280;65257;52.104;4.268;2023-09-19T03:33:33;100459.41;;;18.98;100.00
76424;BME280;65257;52.104;4.268;2023-09-19T03:36:02;100448.22;;;18.90;100.00
76424;BME280;65257;52.104;4.268;2023-09-19T03:38:35;100472.56;;;18.59;100.00
76424;BME280;65257;52.104;4.268;2023-09-19T03:41:01;100485.50;;;18.57;100.00
76424;BME280;65257;52.104;4.268;2023-09-19T03:43:27;100465.50;;;18.88;100.00
76424;BME280;65257;52.104;4.268;2023-09-19T03:45:53;100487.16;;;18.87;100.00
76424;BME280;65257;52.104;4.268;2023-09-19T03:48:26;100482.84;;;18.79;100.00
76424;BME280;65257;52.104;4.268;2023-09-19T03:50:51;100500.09;;;18.83;100.00
76424;BME280;65257;52.104;4.268;2023-09-19T03:53:17;100478.44;;;18.96;100.00
76424;BME280;65257;52.104;4.268;2023-09-19T03:55:45;100497.50;;;18.89;100.00
76424;BME280;65257;52.104;4.268;2023-09-19T03:58:16;100503.50;;;18.95;100.00
76424;BME280;65257;52.104;4.268;2023-09-19T04:00:41;100508.69;;;18.95;100.00
76424;BME280;65257;52.104;4.268;2023-09-19T04:03:07;100522.66;;;18.64;100.00
76424;BME280;65257;52.104;4.268;2023-09-19T04:05:36;100522.47;;;19.06;100.00
76424;BME280;65257;52.104;4.268;2023-09-19T04:08:01;100532.91;;;18.97;100.00
76424;BME280;65257;52.104;4.268;2023-09-19T04:10:27;100524.34;;;18.77;100.00
76424;BME280;65257;52.104;4.268;2023-09-19T04:12:54;100517.16;;;19.33;100.00
76424;BME280;65257;52.104;4.268;2023-09-19T04:15:20;100521.75;;;18.79;100.00
76424;BME280;65257;52.104;4.268;2023-09-19T04:17:51;100533.03;;;18.64;100.00
76424;BME280;65257;52.104;4.268;2023-09-19T04:20:20;100547.72;;;18.59;100.00
76424;BME280;65257;52.104;4.268;2023-09-19T04:22:48;100539.91;;;18.62;100.00
76424;BME280;65257;52.104;4.268;2023-09-19T04:25:14;100545.97;;;18.64;100.00
76424;BME280;65257;52.104;4.268;2023-09-19T04:27:39;100539.91;;;18.77;100.00
76424;BME280;65257;52.104;4.268;2023-09-19T04:30:07;100527.75;;;18.88;100.00
76424;BME280;65257;52.104;4.268;2023-09-19T04:32:37;100523.47;;;18.80;100.00
76424;BME280;65257;52.104;4.268;2023-09-19T04:35:06;100543.34;;;18.76;100.00
76424;BME280;65257;52.104;4.268;2023-09-19T04:37:50;100548.53;;;18.67;100.00
76424;BME280;65257;52.104;4.268;2023-09-19T04:40:18;100559.69;;;18.98;100.00
76424;BME280;65257;52.104;4.268;2023-09-19T04:42:44;100556.19;;;19.12;100.00
76424;BME280;65257;52.104;4.268;2023-09-19T04:45:11;100535.53;;;18.87;100.00
76424;BME280;65257;52.104;4.268;2023-09-19T04:47:41;100531.25;;;18.72;100.00
76424;BME280;65257;52.104;4.268;2023-09-19T04:50:14;100539.03;;;18.75;100.00
76424;BME280;65257;52.104;4.268;2023-09-19T04:52:41;100530.38;;;18.77;100.00
76424;BME280;65257;52.104;4.268;2023-09-19T04:55:14;100552.78;;;18.94;100.00
76424;BME280;65257;52.104;4.268;2023-09-19T04:57:53;100552.78;;;18.94;100.00
76424;BME280;65257;52.104;4.268;2023-09-19T05:00:38;100550.19;;;19.00;100.00
76424;BME280;65257;52.104;4.268;2023-09-19T05:03:04;100542.38;;;19.01;100.00
76424;BME280;65257;52.104;4.268;2023-09-19T05:05:31;100565.75;;;18.95;100.00
76424;BME280;65257;52.104;4.268;2023-09-19T05:07:57;100565.78;;;18.80;100.00
76424;BME280;65257;52.104;4.268;2023-09-19T05:10:24;100541.56;;;18.90;100.00
76424;BME280;65257;52.104;4.268;2023-09-19T05:12:53;100528.53;;;19.10;100.00
76424;BME280;65257;52.104;4.268;2023-09-19T05:15:19;100562.28;;;18.99;100.00
76424;BME280;65257;52.104;4.268;2023-09-19T05:17:49;100552.81;;;18.89;100.00
76424;BME280;65257;52.104;4.268;2023-09-19T05:20:15;100565.84;;;18.71;100.00
76424;BME280;65257;52.104;4.268;2023-09-19T05:22:49;100536.22;;;19.23;100.00
76424;BME280;65257;52.104;4.268;2023-09-19T05:25:16;100536.38;;;18.95;100.00
76424;BME280;65257;52.104;4.268;2023-09-19T05:27:43;100528.47;;;19.19;100.00
76424;BME280;65257;52.104;4.268;2023-09-19T05:30:11;100525.09;;;19.08;100.00
76424;BME280;65257;52.104;4.268;2023-09-19T05:32:39;100554.47;;;19.07;100.00
76424;BME280;65257;52.104;4.268;2023-09-19T05:35:07;100551.94;;;18.93;100.00
76424;BME280;65257;52.104;4.268;2023-09-19T05:37:38;100541.47;;;19.14;100.00
76424;BME280;65257;52.104;4.268;2023-09-19T05:40:07;100537.94;;;19.27;100.00
76424;BME280;65257;52.104;4.268;2023-09-19T05:42:43;100552.63;;;19.30;100.00
76424;BME280;65257;52.104;4.268;2023-09-19T05:45:09;100570.06;;;18.98;100.00
76424;BME280;65257;52.104;4.268;2023-09-19T05:47:41;100564.75;;;19.28;100.00
76424;BME280;65257;52.104;4.268;2023-09-19T05:50:08;100576.88;;;19.24;100.00
76424;BME280;65257;52.104;4.268;2023-09-19T05:52:35;100575.22;;;19.10;100.00
76424;BME280;65257;52.104;4.268;2023-09-19T05:55:04;100579.47;;;19.18;100.00
76424;BME280;65257;52.104;4.268;2023-09-19T05:57:36;100570.78;;;19.34;100.00
76424;BME280;65257;52.104;4.268;2023-09-19T06:00:12;100583.75;;;19.44;100.00
76424;BME280;65257;52.104;4.268;2023-09-19T06:02:40;100581.16;;;19.34;100.00
76424;BME280;65257;52.104;4.268;2023-09-19T06:05:08;100587.19;;;19.46;100.00
76424;BME280;65257;52.104;4.268;2023-09-19T06:07:40;100595.84;;;19.34;100.00
76424;BME280;65257;52.104;4.268;2023-09-19T06:10:08;100581.19;;;19.38;100.00
76424;BME280;65257;52.104;4.268;2023-09-19T06:12:44;100616.63;;;19.37;100.00
76424;BME280;65257;52.104;4.268;2023-09-19T06:15:11;100586.41;;;19.16;100.00
76424;BME280;65257;52.104;4.268;2023-09-19T06:17:48;100586.31;;;19.47;100.00
76424;BME280;65257;52.104;4.268;2023-09-19T06:20:15;100571.78;;;19.05;100.00
76424;BME280;65257;52.104;4.268;2023-09-19T06:22:44;100593.41;;;18.99;100.00
76424;BME280;65257;52.104;4.268;2023-09-19T06:25:40;100595.03;;;19.21;100.00
76424;BME280;65257;52.104;4.268;2023-09-19T06:28:06;100600.25;;;19.18;100.00
76424;BME280;65257;52.104;4.268;2023-09-19T06:30:36;100605.47;;;19.06;100.00
76424;BME280;65257;52.104;4.268;2023-09-19T06:33:08;100594.22;;;19.12;100.00
76424;BME280;65257;52.104;4.268;2023-09-19T06:35:37;100583.91;;;18.94;100.00
76424;BME280;65257;52.104;4.268;2023-09-19T06:38:05;100577.00;;;18.88;100.00
76424;BME280;65257;52.104;4.268;2023-09-19T06:40:34;100584.72;;;19.15;100.00
76424;BME280;65257;52.104;4.268;2023-09-19T06:43:04;100591.25;;;19.92;100.00
76424;BME280;65257;52.104;4.268;2023-09-19T06:45:30;100600.09;;;19.55;100.00
76424;BME280;65257;52.104;4.268;2023-09-19T06:48:00;100598.53;;;19.20;100.00
76424;BME280;65257;52.104;4.268;2023-09-19T06:50:33;100598.59;;;19.05;100.00
76424;BME280;65257;52.104;4.268;2023-09-19T06:53:01;100600.25;;;19.18;100.00
76424;BME280;65257;52.104;4.268;2023-09-19T06:55:34;100605.41;;;19.38;100.00
76424;BME280;65257;52.104;4.268;2023-09-19T06:57:59;100615.59;;;19.73;100.00
76424;BME280;65257;52.104;4.268;2023-09-19T07:00:25;100606.09;;;19.67;100.00
76424;BME280;65257;52.104;4.268;2023-09-19T07:03:01;100620.94;;;19.40;100.00
76424;BME280;65257;52.104;4.268;2023-09-19T07:05:30;100622.59;;;19.62;100.00
76424;BME280;65257;52.104;4.268;2023-09-19T07:07:59;100605.88;;;20.02;100.00
76424;BME280;65257;52.104;4.268;2023-09-19T07:10:29;100605.16;;;19.85;100.00
76424;BME280;65257;52.104;4.268;2023-09-19T07:13:08;100604.22;;;19.90;100.00
76424;BME280;65257;52.104;4.268;2023-09-19T07:15:44;100611.06;;;20.02;100.00
76424;BME280;65257;52.104;4.268;2023-09-19T07:18:16;100603.41;;;19.84;100.00
76424;BME280;65257;52.104;4.268;2023-09-19T07:20:57;100600.75;;;19.94;100.00
76424;BME280;65257;52.104;4.268;2023-09-19T07:23:26;100603.38;;;19.90;100.00
76424;BME280;65257;52.104;4.268;2023-09-19T07:25:52;100607.78;;;19.73;100.00
76424;BME280;65257;52.104;4.268;2023-09-19T07:28:17;100599.75;;;20.09;100.00
76424;BME280;65257;52.104;4.268;2023-09-19T07:30:43;100605.94;;;19.93;100.00
76424;BME280;65257;52.104;4.268;2023-09-19T07:33:09;100610.63;;;20.61;100.00
76424;BME280;65257;52.104;4.268;2023-09-19T07:35:45;100610.59;;;20.63;100.00
76424;BME280;65257;52.104;4.268;2023-09-19T07:38:14;100608.16;;;20.44;100.00
76424;BME280;65257;52.104;4.268;2023-09-19T07:40:40;100589.47;;;19.94;100.00
76424;BME280;65257;52.104;4.268;2023-09-19T07:43:06;100580.53;;;20.31;100.00
76424;BME280;65257;52.104;4.268;2023-09-19T07:45:33;100585.41;;;20.68;100.00
76424;BME280;65257;52.104;4.268;2023-09-19T07:47:59;100585.22;;;20.86;100.00
76424;BME280;65257;52.104;4.268;2023-09-19T07:50:33;100587.44;;;21.20;100.00
76424;BME280;65257;52.104;4.268;2023-09-19T07:53:12;100591.38;;;21.50;100.00
76424;BME280;65257;52.104;4.268;2023-09-19T07:55:45;100596.97;;;21.23;100.00
76424;BME280;65257;52.104;4.268;2023-09-19T07:58:13;100603.56;;;22.64;100.00
76424;BME280;65257;52.104;4.268;2023-09-19T08:00:41;100581.91;;;21.46;100.00
76424;BME280;65257;52.104;4.268;2023-09-19T08:03:07;100587.16;;;21.43;100.00
76424;BME280;65257;52.104;4.268;2023-09-19T08:05:34;100581.16;;;21.38;100.00
76424;BME280;65257;52.104;4.268;2023-09-19T08:07:59;100587.44;;;21.84;100.00
76424;BME280;65257;52.104;4.268;2023-09-19T08:10:24;100587.22;;;22.00;100.00
76424;BME280;65257;52.104;4.268;2023-09-19T08:12:52;100575.03;;;22.02;100.00
76424;BME280;65257;52.104;4.268;2023-09-19T08:15:23;100577.63;;;21.39;100.00
76424;BME280;65257;52.104;4.268;2023-09-19T08:17:49;100570.38;;;21.62;100.00
76424;BME280;65257;52.104;4.268;2023-09-19T08:20:15;100581.38;;;21.20;100.00
76424;BME280;65257;52.104;4.268;2023-09-19T08:22:49;100582.81;;;20.69;100.00
76424;BME280;65257;52.104;4.268;2023-09-19T08:25:17;100580.91;;;21.56;100.00
76424;BME280;65257;52.104;4.268;2023-09-19T08:27:44;100576.16;;;21.20;100.00
76424;BME280;65257;52.104;4.268;2023-09-19T08:30:14;100574.69;;;20.98;100.00
76424;BME280;65257;52.104;4.268;2023-09-19T08:32:40;100564.94;;;20.34;100.00
76424;BME280;65257;52.104;4.268;2023-09-19T08:35:08;100559.00;;;20.14;100.00
76424;BME280;65257;52.104;4.268;2023-09-19T08:37:42;100554.84;;;19.95;100.00
76424;BME280;65257;52.104;4.268;2023-09-19T08:40:11;100530.94;;;19.51;100.00
76424;BME280;65257;52.104;4.268;2023-09-19T08:42:58;100527.06;;;20.03;100.00
76424;BME280;65257;52.104;4.268;2023-09-19T08:45:24;100531.75;;;20.60;100.00
76424;BME280;65257;52.104;4.268;2023-09-19T08:48:19;100526.09;;;20.15;100.00
76424;BME280;65257;52.104;4.268;2023-09-19T08:51:03;100511.84;;;19.55;100.00
76424;BME280;65257;52.104;4.268;2023-09-19T08:53:51;100482.31;;;19.71;100.00
76424;BME280;65257;52.104;4.268;2023-09-19T08:56:19;100523.25;;;20.46;100.00
76424;BME280;65257;52.104;4.268;2023-09-19T08:59:03;100518.56;;;20.76;100.00
76424;BME280;65257;52.104;4.268;2023-09-19T09:01:35;100517.44;;;20.14;100.00
76424;BME280;65257;52.104;4.268;2023-09-19T09:04:02;100519.09;;;20.27;100.00
76424;BME280;65257;52.104;4.268;2023-09-19T09:06:34;100532.75;;;20.47;100.00
76424;BME280;65257;52.104;4.268;2023-09-19T09:09:02;100559.59;;;21.90;100.00
76424;BME280;65257;52.104;4.268;2023-09-19T09:11:33;100561.06;;;22.56;100.00
76424;BME280;65257;52.104;4.268;2023-09-19T09:13:58;100579.88;;;22.75;100.00
76424;BME280;65257;52.104;4.268;2023-09-19T09:16:31;100581.72;;;23.13;100.00
76424;BME280;65257;52.104;4.268;2023-09-19T09:18:56;100590.56;;;22.08;100.00
76424;BME280;65257;52.104;4.268;2023-09-19T09:21:25;100566.91;;;22.20;100.00
76424;BME280;65257;52.104;4.268;2023-09-19T09:24:31;100572.09;;;21.63;100.00
76424;BME280;65257;52.104;4.268;2023-09-19T09:27:06;100568.91;;;22.06;100.00
76424;BME280;65257;52.104;4.268;2023-09-19T09:29:48;100572.25;;;22.64;100.00
76424;BME280;65257;52.104;4.268;2023-09-19T09:32:17;100578.38;;;22.10;100.00
76424;BME280;65257;52.104;4.268;2023-09-19T09:34:57;100561.25;;;21.94;100.00
76424;BME280;65257;52.104;4.268;2023-09-19T09:37:27;100557.09;;;21.21;100.00
76424;BME280;65257;52.104;4.268;2023-09-19T09:40:00;100567.56;;;22.32;100.00
76424;BME280;65257;52.104;4.268;2023-09-19T09:42:41;100559.09;;;22.20;100.00
76424;BME280;65257;52.104;4.268;2023-09-19T09:45:25;100559.44;;;20.66;100.00
76424;BME280;65257;52.104;4.268;2023-09-19T09:48:13;100575.25;;;21.26;100.00
76424;BME280;65257;52.104;4.268;2023-09-19T09:50:47;100544.81;;;21.29;100.00
76424;BME280;65257;52.104;4.268;2023-09-19T09:53:28;100545.19;;;21.63;100.00
76424;BME280;65257;52.104;4.268;2023-09-19T09:55:58;100535.69;;;21.60;100.00
76424;BME280;65257;52.104;4.268;2023-09-19T09:58:38;100525.19;;;21.02;100.00
76424;BME280;65257;52.104;4.268;2023-09-19T10:01:14;100532.06;;;21.09;100.00
76424;BME280;65257;52.104;4.268;2023-09-19T10:03:46;100521.22;;;21.40;100.00
76424;BME280;65257;52.104;4.268;2023-09-19T10:06:18;100543.66;;;21.51;100.00
76424;BME280;65257;52.104;4.268;2023-09-19T10:09:03;100516.00;;;20.74;100.00
76424;BME280;65257;52.104;4.268;2023-09-19T10:12:12;100521.38;;;21.29;100.00
76424;BME280;65257;52.104;4.268;2023-09-19T10:14:38;100514.47;;;21.27;100.00
76424;BME280;65257;52.104;4.268;2023-09-19T10:17:09;100534.28;;;21.38;100.00
76424;BME280;65257;52.104;4.268;2023-09-19T10:19:55;100525.09;;;22.26;100.00
76424;BME280;65257;52.104;4.268;2023-09-19T10:22:25;100527.25;;;22.50;100.00
76424;BME280;65257;52.104;4.268;2023-09-19T10:24:53;100518.47;;;22.08;100.00
76424;BME280;65257;52.104;4.268;2023-09-19T10:27:20;100533.19;;;22.11;100.00
76424;BME280;65257;52.104;4.268;2023-09-19T10:29:51;100536.13;;;21.90;100.00
76424;BME280;65257;52.104;4.268;2023-09-19T10:32:24;100512.25;;;21.62;100.00
76424;BME280;65257;52.104;4.268;2023-09-19T10:34:59;100499.34;;;21.54;100.00
76424;BME280;65257;52.104;4.268;2023-09-19T10:37:30;100490.78;;;21.46;100.00
76424;BME280;65257;52.104;4.268;2023-09-19T10:39:58;100504.97;;;21.24;100.00
76424;BME280;65257;52.104;4.268;2023-09-19T10:42:25;100505.97;;;21.73;100.00
76424;BME280;65257;52.104;4.268;2023-09-19T10:44:55;100506.75;;;21.80;100.00
76424;BME280;65257;52.104;4.268;2023-09-19T10:47:45;100519.56;;;21.34;100.00
76424;BME280;65257;52.104;4.268;2023-09-19T10:50:20;100506.38;;;21.49;100.00
76424;BME280;65257;52.104;4.268;2023-09-19T10:52:49;100504.59;;;21.51;100.00
76424;BME280;65257;52.104;4.268;2023-09-19T10:55:17;100499.38;;;21.51;100.00
76424;BME280;65257;52.104;4.268;2023-09-19T10:57:51;100493.03;;;21.69;100.00
76424;BME280;65257;52.104;4.268;2023-09-19T11:00:18;100490.84;;;21.40;100.00
76424;BME280;65257;52.104;4.268;2023-09-19T11:06:22;100506.00;;;23.13;100.00
76424;BME280;65257;52.104;4.268;2023-09-19T11:09:02;100499.03;;;23.13;100.00
76424;BME280;65257;52.104;4.268;2023-09-19T11:23:28;100495.50;;;21.76;100.00
76424;BME280;65257;52.104;4.268;2023-09-19T11:26:01;100457.59;;;20.26;100.00
76424;BME280;65257;52.104;4.268;2023-09-19T11:28:28;100414.63;;;19.92;100.00
76424;BME280;65257;52.104;4.268;2023-09-19T11:30:54;100412.09;;;19.84;100.00
76424;BME280;65257;52.104;4.268;2023-09-19T11:33:25;100419.53;;;20.19;100.00
76424;BME280;65257;52.104;4.268;2023-09-19T11:36:13;100426.34;;;20.32;100.00
76424;BME280;65257;52.104;4.268;2023-09-19T11:43:45;100402.44;;;20.00;100.00
76424;BME280;65257;52.104;4.268;2023-09-19T11:46:12;100404.78;;;20.24;100.00
76424;BME280;65257;52.104;4.268;2023-09-19T11:48:42;100391.94;;;20.06;100.00
76424;BME280;65257;52.104;4.268;2023-09-19T11:51:24;100327.59;;;20.32;100.00
76424;BME280;65257;52.104;4.268;2023-09-19T11:53:57;100320.56;;;20.40;100.00
76424;BME280;65257;52.104;4.268;2023-09-19T11:56:26;100277.59;;;19.33;100.00
76424;BME280;65257;52.104;4.268;2023-09-19T11:58:59;100212.09;;;19.10;100.00
76424;BME280;65257;52.104;4.268;2023-09-19T12:01:30;100170.59;;;19.08;100.00
76424;BME280;65257;52.104;4.268;2023-09-19T12:04:04;100224.03;;;20.02;100.00
76424;BME280;65257;52.104;4.268;2023-09-19T12:06:31;100258.25;;;19.66;100.00
76424;BME280;65257;52.104;4.268;2023-09-19T12:08:57;100261.84;;;20.21;100.00
76424;BME280;65257;52.104;4.268;2023-09-19T12:11:29;100295.53;;;20.33;100.00
76424;BME280;65257;52.104;4.268;2023-09-19T12:14:04;100315.06;;;20.62;100.00
76424;BME280;65257;52.104;4.268;2023-09-19T12:16:31;100307.63;;;20.95;100.00
76424;BME280;65257;52.104;4.268;2023-09-19T12:19:17;100317.97;;;21.52;100.00
76424;BME280;65257;52.104;4.268;2023-09-19T12:21:57;100347.63;;;21.91;100.00
76424;BME280;65257;52.104;4.268;2023-09-19T12:24:27;100344.38;;;21.79;100.00
76424;BME280;65257;52.104;4.268;2023-09-19T12:27:05;100339.63;;;21.52;100.00
76424;BME280;65257;52.104;4.268;2023-09-19T12:29:32;100266.47;;;21.20;100.00
76424;BME280;65257;52.104;4.268;2023-09-19T12:32:07;100310.34;;;21.40;100.00
76424;BME280;65257;52.104;4.268;2023-09-19T12:34:33;100331.03;;;21.47;100.00
76424;BME280;65257;52.104;4.268;2023-09-19T12:37:14;100363.66;;;21.17;100.00
76424;BME280;65257;52.104;4.268;2023-09-19T12:40:26;100382.03;;;21.07;100.00
76424;BME280;65257;52.104;4.268;2023-09-19T12:43:01;100382.78;;;21.15;100.00
76424;BME280;65257;52.104;4.268;2023-09-19T12:45:31;100395.75;;;21.18;100.00
76424;BME280;65257;52.104;4.268;2023-09-19T12:51:12;100376.06;;;21.00;100.00
76424;BME280;65257;52.104;4.268;2023-09-19T12:54:04;100361.84;;;20.65;100.00
76424;BME280;65257;52.104;4.268;2023-09-19T12:56:39;100368.41;;;20.21;100.00
76424;BME280;65257;52.104;4.268;2023-09-19T12:59:06;100351.75;;;20.40;100.00
76424;BME280;65257;52.104;4.268;2023-09-19T13:01:42;100385.81;;;20.85;100.00
76424;BME280;65257;52.104;4.268;2023-09-19T13:04:22;100374.97;;;20.54;100.00
76424;BME280;65257;52.104;4.268;2023-09-19T13:07:07;100367.81;;;20.70;100.00
76424;BME280;65257;52.104;4.268;2023-09-19T13:09:34;100365.22;;;20.70;100.00
76424;BME280;65257;52.104;4.268;2023-09-19T13:12:00;100352.00;;;20.85;100.00
76424;BME280;65257;52.104;4.268;2023-09-19T13:14:32;100369.91;;;21.06;100.00
76424;BME280;65257;52.104;4.268;2023-09-19T13:17:05;100366.16;;;21.25;100.00
76424;BME280;65257;52.104;4.268;2023-09-19T13:19:48;100371.34;;;21.25;100.00
76424;BME280;65257;52.104;4.268;2023-09-19T13:25:27;100404.16;;;21.35;100.00
76424;BME280;65257;52.104;4.268;2023-09-19T13:28:00;100310.34;;;20.86;100.00
76424;BME280;65257;52.104;4.268;2023-09-19T13:30:30;100164.63;;;21.38;100.00
76424;BME280;65257;52.104;4.268;2023-09-19T13:33:12;100148.75;;;21.04;100.00
76424;BME280;65257;52.104;4.268;2023-09-19T13:35:39;100176.00;;;20.84;100.00
76424;BME280;65257;52.104;4.268;2023-09-19T13:38:06;100176.69;;;20.95;100.00
76424;BME280;65257;52.104;4.268;2023-09-19T13:40:34;100200.09;;;20.95;100.00
76424;BME280;65257;52.104;4.268;2023-09-19T13:43:01;100232.09;;;21.00;100.00